sensor_id;sensor_type;location;lat;lon;timestamp;pressure;altitude;pressure_sealevel;temperature;humidity
12676;BME280;63820;65.654;21.944;2023-04-22T00:01:14;100758.44;;;2.98;100.00
12676;BME280;63820;65.654;21.944;2023-04-22T00:03:58;100756.78;;;2.88;100.00
12676;BME280;63820;65.654;21.944;2023-04-22T00:06:42;100756.06;;;2.69;100.00
12676;BME280;63820;65.654;21.944;2023-04-22T00:09:26;100734.81;;;2.44;100.00
12676;BME280;63820;65.654;21.944;2023-04-22T00:12:10;100746.72;;;2.59;100.00
12676;BME280;63820;65.654;21.944;2023-04-22T00:14:54;100744.97;;;2.62;100.00
12676;BME280;63820;65.654;21.944;2023-04-22T00:17:39;100751.03;;;2.52;100.00
12676;BME280;63820;65.654;21.944;2023-04-22T00:20:25;100747.69;;;2.35;100.00
12676;BME280;63820;65.654;21.944;2023-04-22T00:23:11;100750.34;;;2.17;100.00
12676;BME280;63820;65.654;21.944;2023-04-22T00:25:55;100744.47;;;2.01;100.00
12676;BME280;63820;65.654;21.944;2023-04-22T00:28:41;100734.22;;;1.98;100.00
12676;BME280;63820;65.654;21.944;2023-04-22T00:31:25;100738.50;;;1.99;100.00
12676;BME280;63820;65.654;21.944;2023-04-22T00:34:09;100740.25;;;1.89;100.00
12676;BME280;63820;65.654;21.944;2023-04-22T00:36:54;100751.34;;;1.90;100.00
12676;BME280;63820;65.654;21.944;2023-04-22T00:39:38;100737.66;;;1.94;100.00
12676;BME280;63820;65.654;21.944;2023-04-22T00:42:22;100741.91;;;2.03;100.00
12676;BME280;63820;65.654;21.944;2023-04-22T00:45:09;100748.66;;;2.13;100.00
12676;BME280;63820;65.654;21.944;2023-04-22T00:47:55;100742.63;;;2.23;100.00
12676;BME280;63820;65.654;21.944;2023-04-22T00:50:40;100745.97;;;2.37;100.00
12676;BME280;63820;65.654;21.944;2023-04-22T00:53:24;100740.84;;;2.40;100.00
12676;BME280;63820;65.654;21.944;2023-04-22T00:56:10;100739.22;;;2.21;100.00
12676;BME280;63820;65.654;21.944;2023-04-22T00:58:55;100738.47;;;2.07;100.00
12676;BME280;63820;65.654;21.944;2023-04-22T01:01:39;100739.38;;;1.95;100.00
12676;BME280;63820;65.654;21.944;2023-04-22T01:04:24;100734.25;;;1.87;100.00
12676;BME280;63820;65.654;21.944;2023-04-22T01:07:09;100741.13;;;1.81;100.00
12676;BME280;63820;65.654;21.944;2023-04-22T01:09:53;100726.59;;;1.81;100.00
12676;BME280;63820;65.654;21.944;2023-04-22T01:12:38;100728.31;;;1.76;100.00
12676;BME280;63820;65.654;21.944;2023-04-22T01:15:22;100734.28;;;1.78;100.00
12676;BME280;63820;65.654;21.944;2023-04-22T01:18:06;100736.84;;;1.80;100.00
12676;BME280;63820;65.654;21.944;2023-04-22T01:20:51;100741.06;;;1.99;100.00
12676;BME280;63820;65.654;21.944;2023-04-22T01:23:35;100716.31;;;1.84;100.00
12676;BME280;63820;65.654;21.944;2023-04-22T01:26:20;100726.59;;;1.75;100.00
12676;BME280;63820;65.654;21.944;2023-04-22T01:29:05;100725.75;;;1.81;100.00
12676;BME280;63820;65.654;21.944;2023-04-22T01:31:49;100723.19;;;1.73;100.00
12676;BME280;63820;65.654;21.944;2023-04-22T01:34:33;100711.19;;;1.81;100.00
12676;BME280;63820;65.654;21.944;2023-04-22T01:37:17;100716.31;;;1.84;100.00
12676;BME280;63820;65.654;21.944;2023-04-22T01:40:02;100703.50;;;1.84;100.00
12676;BME280;63820;65.654;21.944;2023-04-22T01:42:50;100662.53;;;1.63;100.00
12676;BME280;63820;65.654;21.944;2023-04-22T01:45:35;100704.31;;;1.92;100.00
12676;BME280;63820;65.654;21.944;2023-04-22T01:48:19;100708.53;;;2.06;100.00
12676;BME280;63820;65.654;21.944;2023-04-22T01:51:04;100704.28;;;2.03;100.00
12676;BME280;63820;65.654;21.944;2023-04-22T01:53:48;100704.28;;;1.99;100.00
12676;BME280;63820;65.654;21.944;2023-04-22T01:56:32;100699.19;;;1.92;100.00
12676;BME280;63820;65.654;21.944;2023-04-22T01:59:16;100701.78;;;1.86;100.00
12676;BME280;63820;65.654;21.944;2023-04-22T02:02:00;100700.13;;;1.72;100.00
12676;BME280;63820;65.654;21.944;2023-04-22T02:04:44;100707.81;;;1.70;100.00
12676;BME280;63820;65.654;21.944;2023-04-22T02:07:28;100707.84;;;1.58;100.00
12676;BME280;63820;65.654;21.944;2023-04-22T02:10:12;100714.75;;;1.38;100.00
12676;BME280;63820;65.654;21.944;2023-04-22T02:12:56;100719.88;;;1.25;100.00
12676;BME280;63820;65.654;21.944;2023-04-22T02:15:41;100705.38;;;1.11;100.00
12676;BME280;63820;65.654;21.944;2023-04-22T02:18:25;100700.31;;;0.97;100.00
12676;BME280;63820;65.654;21.944;2023-04-22T02:21:10;100702.00;;;0.95;100.00
12676;BME280;63820;65.654;21.944;2023-04-22T02:23:54;100692.63;;;0.88;100.00
12676;BME280;63820;65.654;21.944;2023-04-22T02:26:39;100706.25;;;1.05;100.00
12676;BME280;63820;65.654;21.944;2023-04-22T02:29:24;100702.81;;;1.18;100.00
12676;BME280;63820;65.654;21.944;2023-04-22T02:32:08;100701.09;;;1.29;100.00
12676;BME280;63820;65.654;21.944;2023-04-22T02:34:52;100706.19;;;1.36;100.00
12676;BME280;63820;65.654;21.944;2023-04-22T02:37:36;100712.16;;;1.45;100.00
12676;BME280;63820;65.654;21.944;2023-04-22T02:40:21;100705.34;;;1.30;100.00
12676;BME280;63820;65.654;21.944;2023-04-22T02:43:06;100702.81;;;1.17;100.00
12676;BME280;63820;65.654;21.944;2023-04-22T02:45:50;100702.81;;;1.11;100.00
12676;BME280;63820;65.654;21.944;2023-04-22T02:48:33;100705.41;;;1.02;100.00
12676;BME280;63820;65.654;21.944;2023-04-22T02:51:18;100705.44;;;0.94;100.00
12676;BME280;63820;65.654;21.944;2023-04-22T02:54:03;100701.16;;;0.84;100.00
12676;BME280;63820;65.654;21.944;2023-04-22T02:56:47;100698.59;;;0.81;100.00
12676;BME280;63820;65.654;21.944;2023-04-22T02:59:30;100698.59;;;0.90;100.00
12676;BME280;63820;65.654;21.944;2023-04-22T03:02:15;100696.03;;;0.90;100.00
12676;BME280;63820;65.654;21.944;2023-04-22T03:04:59;100710.53;;;0.88;100.00
12676;BME280;63820;65.654;21.944;2023-04-22T03:07:43;100704.56;;;0.86;100.00
12676;BME280;63820;65.654;21.944;2023-04-22T03:10:27;100708.84;;;0.85;100.00
12676;BME280;63820;65.654;21.944;2023-04-22T03:13:12;100708.84;;;0.84;100.00
12676;BME280;63820;65.654;21.944;2023-04-22T03:15:57;100704.56;;;0.89;100.00
12676;BME280;63820;65.654;21.944;2023-04-22T03:18:41;100699.44;;;0.89;100.00
12676;BME280;63820;65.654;21.944;2023-04-22T03:21:25;100709.69;;;0.92;100.00
12676;BME280;63820;65.654;21.944;2023-04-22T03:24:09;100717.34;;;1.09;100.00
12676;BME280;63820;65.654;21.944;2023-04-22T03:26:53;100708.81;;;1.07;100.00
12676;BME280;63820;65.654;21.944;2023-04-22T03:29:37;100708.81;;;1.08;100.00
12676;BME280;63820;65.654;21.944;2023-04-22T03:32:21;100718.19;;;1.12;100.00
12676;BME280;63820;65.654;21.944;2023-04-22T03:35:06;100715.63;;;1.12;100.00
12676;BME280;63820;65.654;21.944;2023-04-22T03:37:50;100713.06;;;1.18;100.00
12676;BME280;63820;65.654;21.944;2023-04-22T03:40:34;100716.44;;;1.36;100.00
12676;BME280;63820;65.654;21.944;2023-04-22T03:43:18;100711.28;;;1.60;100.00
12676;BME280;63820;65.654;21.944;2023-04-22T03:46:02;100722.31;;;1.79;100.00
12676;BME280;63820;65.654;21.944;2023-04-22T03:48:46;100724.84;;;1.94;100.00
12676;BME280;63820;65.654;21.944;2023-04-22T03:51:30;100719.50;;;2.27;100.00
12676;BME280;63820;65.654;21.944;2023-04-22T03:54:14;100733.03;;;2.57;100.00
12676;BME280;63820;65.654;21.944;2023-04-22T03:56:58;100741.53;;;2.63;100.00
12676;BME280;63820;65.654;21.944;2023-04-22T03:59:42;100733.88;;;2.59;100.00
12676;BME280;63820;65.654;21.944;2023-04-22T04:02:26;100744.03;;;2.76;100.00
12676;BME280;63820;65.654;21.944;2023-04-22T04:05:10;100746.38;;;3.05;100.00
12676;BME280;63820;65.654;21.944;2023-04-22T04:07:54;100751.09;;;3.49;100.00
12676;BME280;63820;65.654;21.944;2023-04-22T04:10:40;100753.56;;;3.59;100.00
12676;BME280;63820;65.654;21.944;2023-04-22T04:13:25;100757.13;;;3.46;100.00
12676;BME280;63820;65.654;21.944;2023-04-22T04:16:09;100753.81;;;3.35;100.00
12676;BME280;63820;65.654;21.944;2023-04-22T04:18:54;100753.91;;;3.24;100.00
12676;BME280;63820;65.654;21.944;2023-04-22T04:21:38;100758.88;;;3.43;100.00
12676;BME280;63820;65.654;21.944;2023-04-22T04:24:23;100756.16;;;3.56;100.00
12676;BME280;63820;65.654;21.944;2023-04-22T04:27:07;100754.19;;;3.81;100.00
12676;BME280;63820;65.654;21.944;2023-04-22T04:29:52;100760.13;;;3.86;100.00
12676;BME280;63820;65.654;21.944;2023-04-22T04:32:38;100753.16;;;3.98;100.00
12676;BME280;63820;65.654;21.944;2023-04-22T04:35:23;100767.78;;;3.92;100.00
12676;BME280;63820;65.654;21.944;2023-04-22T04:38:06;100766.06;;;3.94;100.00
12676;BME280;63820;65.654;21.944;2023-04-22T04:40:51;100769.56;;;3.86;100.00
12676;BME280;63820;65.654;21.944;2023-04-22T04:43:36;100774.78;;;3.81;100.00
12676;BME280;63820;65.654;21.944;2023-04-22T04:46:20;100779.09;;;3.79;100.00
12676;BME280;63820;65.654;21.944;2023-04-22T04:49:04;100774.91;;;3.69;100.00
12676;BME280;63820;65.654;21.944;2023-04-22T04:51:49;100771.59;;;3.58;100.00
12676;BME280;63820;65.654;21.944;2023-04-22T04:54:33;100770.66;;;3.65;100.00
12676;BME280;63820;65.654;21.944;2023-04-22T04:57:17;100785.19;;;3.69;100.00
12676;BME280;63820;65.654;21.944;2023-04-22T05:00:01;100782.63;;;3.68;100.00
12676;BME280;63820;65.654;21.944;2023-04-22T05:02:46;100786.75;;;3.85;100.00
12676;BME280;63820;65.654;21.944;2023-04-22T05:05:30;100787.22;;;4.16;100.00
12676;BME280;63820;65.654;21.944;2023-04-22T05:08:14;100798.09;;;4.38;100.00
12676;BME280;63820;65.654;21.944;2023-04-22T05:10:59;100791.81;;;4.60;100.00
12676;BME280;63820;65.654;21.944;2023-04-22T05:13:43;100788.16;;;4.75;100.00
12676;BME280;63820;65.654;21.944;2023-04-22T05:16:27;100785.22;;;5.00;100.00
12676;BME280;63820;65.654;21.944;2023-04-22T05:19:12;100793.13;;;5.40;100.00
12676;BME280;63820;65.654;21.944;2023-04-22T05:21:56;100792.94;;;5.50;100.00
12676;BME280;63820;65.654;21.944;2023-04-22T05:24:40;100791.38;;;5.42;100.00
12676;BME280;63820;65.654;21.944;2023-04-22T05:27:24;100791.91;;;5.11;100.00
12676;BME280;63820;65.654;21.944;2023-04-22T05:30:08;100787.78;;;5.52;100.00
12676;BME280;63820;65.654;21.944;2023-04-22T05:32:52;100771.25;;;6.08;100.00
12676;BME280;63820;65.654;21.944;2023-04-22T05:35:36;100765.19;;;6.11;100.00
12676;BME280;63820;65.654;21.944;2023-04-22T05:38:20;100754.38;;;5.90;100.00
12676;BME280;63820;65.654;21.944;2023-04-22T05:41:04;100769.31;;;5.73;100.00
12676;BME280;63820;65.654;21.944;2023-04-22T05:43:48;100764.09;;;6.21;100.00
12676;BME280;63820;65.654;21.944;2023-04-22T05:46:32;100775.09;;;6.69;100.00
12676;BME280;63820;65.654;21.944;2023-04-22T05:49:16;100769.28;;;6.97;97.10
12676;BME280;63820;65.654;21.944;2023-04-22T05:52:01;100776.81;;;6.69;99.14
12676;BME280;63820;65.654;21.944;2023-04-22T05:54:44;100775.50;;;6.51;97.41
12676;BME280;63820;65.654;21.944;2023-04-22T05:57:30;100774.91;;;6.77;96.61
12676;BME280;63820;65.654;21.944;2023-04-22T06:00:15;100787.38;;;6.60;96.59
12676;BME280;63820;65.654;21.944;2023-04-22T06:02:59;100796.34;;;6.43;96.46
12676;BME280;63820;65.654;21.944;2023-04-22T06:05:43;100805.09;;;5.95;100.00
12676;BME280;63820;65.654;21.944;2023-04-22T06:08:29;100798.25;;;5.92;100.00
12676;BME280;63820;65.654;21.944;2023-04-22T06:11:13;100796.28;;;6.05;100.00
12676;BME280;63820;65.654;21.944;2023-04-22T06:13:58;100802.88;;;6.60;97.44
12676;BME280;63820;65.654;21.944;2023-04-22T06:16:42;100803.25;;;6.81;94.38
12676;BME280;63820;65.654;21.944;2023-04-22T06:19:26;100804.84;;;6.48;95.51
12676;BME280;63820;65.654;21.944;2023-04-22T06:22:10;100810.59;;;5.75;99.50
12676;BME280;63820;65.654;21.944;2023-04-22T06:24:55;100811.50;;;5.72;99.92
12676;BME280;63820;65.654;21.944;2023-04-22T06:27:39;100813.13;;;5.27;100.00
12676;BME280;63820;65.654;21.944;2023-04-22T06:30:23;100810.50;;;5.30;100.00
12676;BME280;63820;65.654;21.944;2023-04-22T06:33:07;100811.50;;;5.21;100.00
12676;BME280;63820;65.654;21.944;2023-04-22T06:35:52;100815.78;;;5.22;100.00
12676;BME280;63820;65.654;21.944;2023-04-22T06:38:36;100810.16;;;5.50;100.00
12676;BME280;63820;65.654;21.944;2023-04-22T06:41:20;100807.69;;;5.44;99.79
12676;BME280;63820;65.654;21.944;2023-04-22T06:44:05;100822.25;;;5.48;97.54
12676;BME280;63820;65.654;21.944;2023-04-22T06:46:49;100838.91;;;5.29;98.47
12676;BME280;63820;65.654;21.944;2023-04-22T06:49:33;100841.78;;;5.10;98.59
12676;BME280;63820;65.654;21.944;2023-04-22T06:52:20;100831.25;;;4.66;100.00
12676;BME280;63820;65.654;21.944;2023-04-22T06:55:05;100837.53;;;4.43;100.00
12676;BME280;63820;65.654;21.944;2023-04-22T06:57:49;100854.47;;;4.63;100.00
12676;BME280;63820;65.654;21.944;2023-04-22T07:00:34;100854.81;;;4.35;100.00
12676;BME280;63820;65.654;21.944;2023-04-22T07:03:18;100863.44;;;4.31;100.00
12676;BME280;63820;65.654;21.944;2023-04-22T07:06:02;100871.16;;;4.33;100.00
12676;BME280;63820;65.654;21.944;2023-04-22T07:08:47;100878.13;;;4.21;100.00
12676;BME280;63820;65.654;21.944;2023-04-22T07:11:31;100879.19;;;4.07;100.00
12676;BME280;63820;65.654;21.944;2023-04-22T07:14:16;100880.28;;;3.83;100.00
12676;BME280;63820;65.654;21.944;2023-04-22T07:16:59;100893.03;;;3.95;100.00
12676;BME280;63820;65.654;21.944;2023-04-22T07:19:43;100891.47;;;3.77;100.00
12676;BME280;63820;65.654;21.944;2023-04-22T07:22:28;100888.91;;;3.77;100.00
12676;BME280;63820;65.654;21.944;2023-04-22T07:25:12;100892.31;;;3.81;100.00
12676;BME280;63820;65.654;21.944;2023-04-22T07:27:56;100888.75;;;3.92;100.00
12676;BME280;63820;65.654;21.944;2023-04-22T07:30:41;100899.13;;;3.85;100.00
12676;BME280;63820;65.654;21.944;2023-04-22T07:33:24;100910.22;;;3.90;100.00
12676;BME280;63820;65.654;21.944;2023-04-22T07:36:08;100894.25;;;3.51;100.00
12676;BME280;63820;65.654;21.944;2023-04-22T07:38:53;100910.59;;;3.46;100.00
12676;BME280;63820;65.654;21.944;2023-04-22T07:41:37;100922.66;;;3.33;100.00
12676;BME280;63820;65.654;21.944;2023-04-22T07:44:21;100926.88;;;3.45;100.00
12676;BME280;63820;65.654;21.944;2023-04-22T07:47:06;100928.72;;;3.27;100.00
12676;BME280;63820;65.654;21.944;2023-04-22T07:49:53;100930.44;;;3.24;100.00
12676;BME280;63820;65.654;21.944;2023-04-22T07:52:38;100938.16;;;3.24;100.00
12676;BME280;63820;65.654;21.944;2023-04-22T07:55:22;100930.44;;;3.27;100.00
12676;BME280;63820;65.654;21.944;2023-04-22T07:58:06;100936.50;;;3.15;100.00
12676;BME280;63820;65.654;21.944;2023-04-22T08:00:50;100939.72;;;3.48;100.00
12676;BME280;63820;65.654;21.944;2023-04-22T08:03:34;100949.84;;;3.69;100.00
12676;BME280;63820;65.654;21.944;2023-04-22T08:06:18;100950.78;;;3.59;100.00
12676;BME280;63820;65.654;21.944;2023-04-22T08:09:03;100962.66;;;3.78;100.00
12676;BME280;63820;65.654;21.944;2023-04-22T08:11:47;100966.25;;;3.53;100.00
12676;BME280;63820;65.654;21.944;2023-04-22T08:14:31;100971.50;;;3.36;100.00
12676;BME280;63820;65.654;21.944;2023-04-22T08:17:16;100982.72;;;3.21;100.00
12676;BME280;63820;65.654;21.944;2023-04-22T08:20:04;100975.19;;;2.86;100.00
12676;BME280;63820;65.654;21.944;2023-04-22T08:22:49;100982.84;;;3.03;100.00
12676;BME280;63820;65.654;21.944;2023-04-22T08:25:34;100988.06;;;2.79;100.00
12676;BME280;63820;65.654;21.944;2023-04-22T08:28:18;100995.75;;;2.91;100.00
12676;BME280;63820;65.654;21.944;2023-04-22T08:31:03;100999.97;;;3.07;100.00
12676;BME280;63820;65.654;21.944;2023-04-22T08:33:47;101002.53;;;3.07;100.00
12676;BME280;63820;65.654;21.944;2023-04-22T08:36:33;101013.66;;;3.09;100.00
12676;BME280;63820;65.654;21.944;2023-04-22T08:39:18;101019.75;;;2.85;100.00
12676;BME280;63820;65.654;21.944;2023-04-22T08:42:02;101031.75;;;2.77;100.00
12676;BME280;63820;65.654;21.944;2023-04-22T08:44:47;101025.78;;;2.68;100.00
12676;BME280;63820;65.654;21.944;2023-04-22T08:47:32;101029.25;;;2.44;100.00
12676;BME280;63820;65.654;21.944;2023-04-22T08:50:19;101039.50;;;2.39;100.00
12676;BME280;63820;65.654;21.944;2023-04-22T08:53:05;101042.94;;;2.40;100.00
12676;BME280;63820;65.654;21.944;2023-04-22T08:55:49;101050.63;;;2.59;100.00
12676;BME280;63820;65.654;21.944;2023-04-22T08:58:35;101049.75;;;2.76;100.00
12676;BME280;63820;65.654;21.944;2023-04-22T09:01:20;101054.00;;;2.81;100.00
12676;BME280;63820;65.654;21.944;2023-04-22T09:04:08;101068.56;;;2.84;100.00
12676;BME280;63820;65.654;21.944;2023-04-22T09:06:53;101074.59;;;2.55;100.00
12676;BME280;63820;65.654;21.944;2023-04-22T09:09:37;101086.59;;;2.50;100.00
12676;BME280;63820;65.654;21.944;2023-04-22T09:12:22;101090.88;;;2.47;100.00
12676;BME280;63820;65.654;21.944;2023-04-22T09:15:07;101087.44;;;2.37;100.00
12676;BME280;63820;65.654;21.944;2023-04-22T09:17:52;101100.25;;;2.08;100.00
12676;BME280;63820;65.654;21.944;2023-04-22T09:20:40;101107.13;;;2.08;100.00
12676;BME280;63820;65.654;21.944;2023-04-22T09:23:25;101117.38;;;2.14;100.00
12676;BME280;63820;65.654;21.944;2023-04-22T09:26:10;101128.53;;;2.36;100.00
12676;BME280;63820;65.654;21.944;2023-04-22T09:28:56;101129.38;;;2.33;100.00
12676;BME280;63820;65.654;21.944;2023-04-22T09:31:47;101131.09;;;2.36;100.00
12676;BME280;63820;65.654;21.944;2023-04-22T09:34:31;101129.38;;;2.54;100.00
12676;BME280;63820;65.654;21.944;2023-04-22T09:37:18;101133.66;;;2.74;100.00
12676;BME280;63820;65.654;21.944;2023-04-22T09:40:03;101137.06;;;2.91;100.00
12676;BME280;63820;65.654;21.944;2023-04-22T09:42:53;101145.63;;;3.05;100.00
12676;BME280;63820;65.654;21.944;2023-04-22T09:45:39;101149.91;;;3.05;100.00
12676;BME280;63820;65.654;21.944;2023-04-22T09:48:23;101156.69;;;3.27;100.00
12676;BME280;63820;65.654;21.944;2023-04-22T09:51:15;101145.50;;;3.42;100.00
12676;BME280;63820;65.654;21.944;2023-04-22T09:54:04;101147.28;;;3.18;100.00
12676;BME280;63820;65.654;21.944;2023-04-22T09:56:52;101148.97;;;3.36;100.00
12676;BME280;63820;65.654;21.944;2023-04-22T09:59:36;101157.56;;;3.21;100.00
12676;BME280;63820;65.654;21.944;2023-04-22T10:02:28;101160.97;;;3.33;100.00
12676;BME280;63820;65.654;21.944;2023-04-22T10:05:12;101170.38;;;3.38;100.00
12676;BME280;63820;65.654;21.944;2023-04-22T10:07:57;101173.84;;;3.19;100.00
12676;BME280;63820;65.654;21.944;2023-04-22T10:10:41;101172.09;;;3.42;100.00
12676;BME280;63820;65.654;21.944;2023-04-22T10:13:25;101181.53;;;3.36;100.00
12676;BME280;63820;65.654;21.944;2023-04-22T10:16:09;101186.63;;;3.57;100.00
12676;BME280;63820;65.654;21.944;2023-04-22T10:18:54;101184.81;;;3.83;100.00
12676;BME280;63820;65.654;21.944;2023-04-22T10:21:43;101186.06;;;4.57;100.00
12676;BME280;63820;65.654;21.944;2023-04-22T10:24:34;101197.66;;;5.12;100.00
12676;BME280;63820;65.654;21.944;2023-04-22T10:27:20;101205.13;;;5.36;100.00
12676;BME280;63820;65.654;21.944;2023-04-22T10:30:06;101196.75;;;5.17;100.00
12676;BME280;63820;65.654;21.944;2023-04-22T10:32:52;101208.78;;;5.17;100.00
12676;BME280;63820;65.654;21.944;2023-04-22T10:35:36;101198.19;;;5.43;100.00
12676;BME280;63820;65.654;21.944;2023-04-22T10:38:20;101204.31;;;5.33;100.00
12676;BME280;63820;65.654;21.944;2023-04-22T10:41:04;101208.31;;;5.61;100.00
12676;BME280;63820;65.654;21.944;2023-04-22T10:43:55;101209.94;;;5.70;100.00
12676;BME280;63820;65.654;21.944;2023-04-22T10:47:01;101218.88;;;6.75;100.00
12676;BME280;63820;65.654;21.944;2023-04-22T10:49:45;101214.47;;;7.29;100.00
12676;BME280;63820;65.654;21.944;2023-04-22T10:52:29;101211.19;;;7.67;99.17
12676;BME280;63820;65.654;21.944;2023-04-22T10:55:13;101214.94;;;7.96;96.35
12676;BME280;63820;65.654;21.944;2023-04-22T10:57:58;101212.00;;;7.25;99.37
12676;BME280;63820;65.654;21.944;2023-04-22T11:00:43;101224.19;;;7.19;98.26
12676;BME280;63820;65.654;21.944;2023-04-22T11:03:29;101237.81;;;6.77;100.00
12676;BME280;63820;65.654;21.944;2023-04-22T11:06:18;101242.28;;;6.66;100.00
12676;BME280;63820;65.654;21.944;2023-04-22T11:09:09;101229.50;;;5.94;100.00
12676;BME280;63820;65.654;21.944;2023-04-22T11:15:18;101239.81;;;5.09;100.00
12676;BME280;63820;65.654;21.944;2023-04-22T11:18:23;101242.59;;;4.85;100.00
12676;BME280;63820;65.654;21.944;2023-04-22T11:21:08;101235.66;;;4.90;100.00
12676;BME280;63820;65.654;21.944;2023-04-22T11:23:52;101242.94;;;5.40;100.00
12676;BME280;63820;65.654;21.944;2023-04-22T11:26:36;101240.19;;;5.57;100.00
12676;BME280;63820;65.654;21.944;2023-04-22T11:29:21;101253.53;;;5.99;100.00
12676;BME280;63820;65.654;21.944;2023-04-22T11:32:05;101257.13;;;5.82;100.00
12676;BME280;63820;65.654;21.944;2023-04-22T11:34:50;101256.41;;;5.71;100.00
12676;BME280;63820;65.654;21.944;2023-04-22T11:37:48;101255.88;;;5.36;100.00
12676;BME280;63820;65.654;21.944;2023-04-22T11:40:43;101253.84;;;5.68;100.00
12676;BME280;63820;65.654;21.944;2023-04-22T11:43:28;101253.69;;;5.83;99.15
12676;BME280;63820;65.654;21.944;2023-04-22T11:46:12;101258.69;;;6.00;100.00
12676;BME280;63820;65.654;21.944;2023-04-22T11:49:15;101262.88;;;6.72;92.43
12676;BME280;63820;65.654;21.944;2023-04-22T11:51:59;101264.13;;;6.43;87.63
12676;BME280;63820;65.654;21.944;2023-04-22T11:54:43;101253.31;;;6.18;86.58
12676;BME280;63820;65.654;21.944;2023-04-22T11:57:34;101261.06;;;6.18;85.91
12676;BME280;63820;65.654;21.944;2023-04-22T12:00:19;101261.94;;;6.77;82.64
12676;BME280;63820;65.654;21.944;2023-04-22T12:03:13;101266.19;;;7.32;81.37
12676;BME280;63820;65.654;21.944;2023-04-22T12:06:00;101267.66;;;7.48;78.54
12676;BME280;63820;65.654;21.944;2023-04-22T12:08:44;101264.72;;;7.20;75.74
12676;BME280;63820;65.654;21.944;2023-04-22T12:11:30;101265.97;;;7.46;73.49
12676;BME280;63820;65.654;21.944;2023-04-22T12:14:15;101271.66;;;7.66;70.72
12676;BME280;63820;65.654;21.944;2023-04-22T12:17:02;101269.06;;;7.65;69.67
12676;BME280;63820;65.654;21.944;2023-04-22T12:19:52;101264.28;;;7.90;68.77
12676;BME280;63820;65.654;21.944;2023-04-22T12:22:37;101273.09;;;9.01;66.50
12676;BME280;63820;65.654;21.944;2023-04-22T12:25:22;101264.84;;;9.86;61.61
12676;BME280;63820;65.654;21.944;2023-04-22T12:28:06;101270.69;;;10.81;61.44
12676;BME280;63820;65.654;21.944;2023-04-22T12:30:50;101267.19;;;12.09;54.08
12676;BME280;63820;65.654;21.944;2023-04-22T12:33:35;101275.41;;;12.46;52.64
12676;BME280;63820;65.654;21.944;2023-04-22T12:36:20;101267.03;;;12.14;51.13
12676;BME280;63820;65.654;21.944;2023-04-22T12:39:04;101267.38;;;12.72;49.68
12676;BME280;63820;65.654;21.944;2023-04-22T12:41:48;101267.56;;;12.46;48.83
12676;BME280;63820;65.654;21.944;2023-04-22T12:44:34;101268.06;;;12.99;47.81
12676;BME280;63820;65.654;21.944;2023-04-22T12:47:18;101271.13;;;11.71;48.29
12676;BME280;63820;65.654;21.944;2023-04-22T12:50:03;101264.53;;;12.11;45.18
12676;BME280;63820;65.654;21.944;2023-04-22T12:52:49;101263.84;;;11.56;45.13
12676;BME280;63820;65.654;21.944;2023-04-22T12:55:34;101270.81;;;10.78;48.64
12676;BME280;63820;65.654;21.944;2023-04-22T12:58:19;101266.06;;;10.91;48.12
12676;BME280;63820;65.654;21.944;2023-04-22T13:01:04;101274.19;;;11.08;47.02
12676;BME280;63820;65.654;21.944;2023-04-22T13:03:48;101266.91;;;9.73;48.11
12676;BME280;63820;65.654;21.944;2023-04-22T13:06:36;101266.25;;;8.99;47.51
12676;BME280;63820;65.654;21.944;2023-04-22T13:09:23;101264.59;;;9.30;49.05
12676;BME280;63820;65.654;21.944;2023-04-22T13:12:08;101270.25;;;9.78;49.28
12676;BME280;63820;65.654;21.944;2023-04-22T13:14:52;101276.22;;;9.82;47.39
12676;BME280;63820;65.654;21.944;2023-04-22T13:17:37;101272.28;;;9.67;47.39
12676;BME280;63820;65.654;21.944;2023-04-22T13:20:21;101278.59;;;9.25;48.12
12676;BME280;63820;65.654;21.944;2023-04-22T13:23:06;101283.88;;;8.84;46.84
12676;BME280;63820;65.654;21.944;2023-04-22T13:25:52;101287.28;;;8.06;48.56
12676;BME280;63820;65.654;21.944;2023-04-22T13:28:37;101282.69;;;7.76;48.92
12676;BME280;63820;65.654;21.944;2023-04-22T13:31:21;101291.28;;;7.78;49.99
12676;BME280;63820;65.654;21.944;2023-04-22T13:34:05;101301.16;;;7.56;48.77
12676;BME280;63820;65.654;21.944;2023-04-22T13:36:50;101296.25;;;7.41;49.50
12676;BME280;63820;65.654;21.944;2023-04-22T13:39:35;101302.69;;;7.68;49.58
12676;BME280;63820;65.654;21.944;2023-04-22T13:42:19;101302.66;;;7.21;49.74
12676;BME280;63820;65.654;21.944;2023-04-22T13:45:03;101304.28;;;6.70;50.24
12676;BME280;63820;65.654;21.944;2023-04-22T13:47:47;101306.78;;;6.75;49.14
12676;BME280;63820;65.654;21.944;2023-04-22T13:50:31;101306.97;;;6.63;51.41
12676;BME280;63820;65.654;21.944;2023-04-22T13:53:16;101296.13;;;6.35;50.18
12676;BME280;63820;65.654;21.944;2023-04-22T13:56:00;101305.75;;;6.88;49.45
12676;BME280;63820;65.654;21.944;2023-04-22T13:58:44;101301.94;;;6.52;49.59
12676;BME280;63820;65.654;21.944;2023-04-22T14:01:29;101308.28;;;6.91;50.17
12676;BME280;63820;65.654;21.944;2023-04-22T14:04:14;101300.56;;;6.25;50.46
12676;BME280;63820;65.654;21.944;2023-04-22T14:06:58;101304.47;;;6.56;50.89
12676;BME280;63820;65.654;21.944;2023-04-22T14:09:43;101298.22;;;6.07;51.09
12676;BME280;63820;65.654;21.944;2023-04-22T14:12:27;101310.44;;;5.93;51.04
12676;BME280;63820;65.654;21.944;2023-04-22T14:15:11;101307.16;;;5.72;51.36
12676;BME280;63820;65.654;21.944;2023-04-22T14:17:55;101311.09;;;6.11;51.72